createdAt,value
2019-05-17T00:04:09.849Z,13.33
2019-05-17T00:09:13.446Z,12.00
2019-05-17T00:14:17.118Z,13.50
2019-05-17T00:19:20.770Z,14.33
2019-05-17T00:24:26.465Z,12.77
2019-05-17T00:29:29.598Z,13.33
2019-05-17T00:34:33.182Z,14.53
2019-05-17T00:39:36.849Z,12.80
2019-05-17T00:44:40.533Z,12.67
2019-05-17T00:49:46.444Z,13.80
2019-05-17T00:54:50.143Z,15.60
2019-05-17T00:59:54.070Z,13.50
2019-05-17T01:04:57.663Z,12.67
2019-05-17T01:10:01.243Z,14.07
2019-05-17T01:15:09.322Z,13.40
2019-05-17T01:20:13.346Z,13.67
2019-05-17T01:25:17.533Z,13.03
2019-05-17T01:30:21.258Z,13.70
2019-05-17T01:35:26.634Z,14.67
2019-05-17T01:40:30.112Z,12.20
2019-05-17T01:45:33.701Z,13.53
2019-05-17T01:50:37.645Z,13.73
2019-05-17T01:55:41.357Z,12.63
2019-05-17T02:00:46.533Z,15.27
2019-05-17T02:05:50.726Z,14.97
2019-05-17T02:10:54.446Z,13.37
2019-05-17T02:15:58.109Z,14.20
2019-05-17T02:21:02.059Z,12.20
2019-05-17T02:26:06.795Z,13.17
2019-05-17T02:31:13.389Z,13.70
2019-05-17T02:36:16.339Z,15.80
2019-05-17T02:41:22.735Z,13.87
2019-05-17T02:46:25.299Z,17.53
2019-05-17T02:51:32.121Z,18.27
2019-05-17T02:56:34.261Z,15.13
2019-05-17T03:01:37.863Z,15.27
2019-05-17T03:06:43.921Z,15.80
2019-05-17T03:11:46.907Z,15.03
2019-05-17T03:16:53.427Z,17.10
2019-05-17T03:21:56.267Z,13.83
2019-05-17T03:27:02.838Z,15.97
2019-05-17T03:32:08.699Z,14.57
2019-05-17T03:37:16.073Z,18.13
2019-05-17T03:42:16.793Z,14.73
2019-05-17T03:47:22.666Z,15.60
2019-05-17T03:52:26.362Z,17.67
2019-05-17T03:57:32.355Z,19.23
2019-05-17T04:02:37.129Z,16.13
2019-05-17T04:07:43.427Z,17.23
2019-05-17T04:12:46.410Z,16.97
2019-05-17T04:17:52.843Z,16.57
2019-05-17T04:22:59.657Z,16.90
2019-05-17T04:28:03.580Z,18.23
2019-05-17T04:33:07.228Z,18.33
2019-05-17T04:38:12.803Z,17.17
2019-05-17T04:43:16.468Z,18.23
2019-05-17T04:48:23.586Z,17.23
2019-05-17T04:53:27.153Z,18.37
2019-05-17T04:58:33.541Z,19.03
2019-05-17T05:03:36.542Z,17.37
2019-05-17T05:08:42.544Z,16.93
2019-05-17T05:13:45.762Z,19.90
2019-05-17T05:18:51.916Z,23.53
2019-05-17T05:23:54.590Z,18.50
2019-05-17T05:28:58.172Z,23.13
2019-05-17T05:34:02.116Z,18.53
2019-05-17T05:39:07.341Z,20.35
2019-05-17T05:44:12.261Z,17.00
2019-05-17T05:49:16.442Z,16.13
2019-05-17T05:54:22.413Z,13.53
2019-05-17T05:59:25.685Z,13.13
2019-05-17T06:04:31.656Z,13.73
2019-05-17T06:09:34.641Z,12.80
2019-05-17T06:14:38.236Z,13.00
2019-05-17T06:19:42.342Z,16.00
2019-05-17T06:24:46.037Z,16.57
2019-05-17T06:29:51.552Z,16.60
2019-05-17T06:34:55.595Z,17.87
2019-05-17T06:40:02.104Z,18.60
2019-05-17T06:45:06.777Z,18.10
2019-05-17T06:50:10.726Z,18.23
2019-05-17T06:55:14.741Z,20.80
2019-05-17T07:00:23.622Z,19.63
2019-05-17T07:05:35.318Z,20.40
2019-05-17T07:10:39.903Z,16.87
2019-05-17T07:15:47.849Z,19.97
2019-05-17T07:20:50.229Z,18.20
2019-05-17T07:25:53.944Z,18.43
2019-05-17T07:30:59.665Z,17.90
2019-05-17T07:36:02.916Z,16.30
2019-05-17T07:41:06.590Z,18.47
2019-05-17T07:46:10.537Z,16.37
2019-05-17T07:51:14.499Z,17.80
2019-05-17T07:56:20.007Z,19.27
2019-05-17T08:01:23.332Z,17.30
2019-05-17T08:06:26.931Z,16.10
2019-05-17T08:11:30.895Z,18.67
2019-05-17T08:16:34.500Z,17.63
2019-05-17T08:21:39.841Z,18.93
2019-05-17T08:26:43.388Z,20.70
2019-05-17T08:31:46.981Z,18.80
2019-05-17T08:36:50.598Z,15.73
2019-05-17T08:41:54.206Z,16.33
2019-05-17T08:46:59.513Z,20.50
2019-05-17T08:52:03.156Z,19.23
2019-05-17T08:57:06.748Z,17.30
2019-05-17T09:02:10.923Z,16.67
2019-05-17T09:07:14.525Z,18.30
2019-05-17T09:12:20.487Z,17.13
2019-05-17T09:17:23.452Z,18.73
2019-05-17T09:22:30.495Z,17.70
2019-05-17T09:27:32.548Z,16.30
2019-05-17T09:32:36.133Z,15.87
2019-05-17T09:37:41.290Z,18.27
2019-05-17T09:42:45.737Z,20.63
2019-05-17T09:47:50.587Z,17.80
2019-05-17T09:52:54.693Z,19.97
2019-05-17T09:58:00.240Z,17.63
2019-05-17T10:03:03.520Z,18.23
2019-05-17T10:08:07.254Z,17.53
2019-05-17T10:13:10.916Z,16.80
2019-05-17T10:18:14.577Z,18.97
2019-05-17T10:23:19.657Z,20.30
2019-05-17T10:28:23.483Z,20.57
2019-05-17T10:33:29.333Z,16.77
2019-05-17T10:38:32.714Z,19.37
2019-05-17T10:43:36.309Z,18.10
2019-05-17T10:48:41.119Z,20.13
2019-05-17T10:53:45.161Z,19.10
2019-05-17T10:58:53.113Z,17.40
2019-05-17T11:03:59.626Z,19.10
2019-05-17T11:09:06.052Z,19.17
2019-05-17T11:14:10.198Z,19.83
2019-05-17T11:19:16.050Z,18.37
2019-05-17T11:24:20.941Z,19.60
2019-05-17T11:29:26.630Z,18.43
2019-05-17T11:34:30.819Z,15.47
2019-05-17T11:39:37.833Z,17.47
2019-05-17T11:44:41.639Z,20.63
2019-05-17T11:49:45.261Z,17.40
2019-05-17T11:54:49.002Z,18.77
2019-05-17T11:59:52.674Z,16.97
2019-05-17T12:04:56.413Z,17.30
2019-05-17T12:10:00.065Z,15.70
2019-05-17T12:15:05.712Z,14.13
2019-05-17T12:20:10.112Z,18.20
2019-05-17T12:25:14.420Z,14.63
2019-05-17T12:30:18.561Z,13.67
2019-05-17T12:35:22.537Z,11.87
2019-05-17T12:40:26.599Z,13.37
2019-05-17T12:45:30.708Z,13.53
2019-05-17T12:50:34.395Z,12.57
2019-05-17T12:55:38.014Z,14.53
2019-05-17T13:00:41.975Z,17.77
2019-05-17T13:05:45.568Z,13.57
2019-05-17T13:10:49.563Z,11.40
2019-05-17T13:15:53.604Z,16.73
2019-05-17T13:20:57.192Z,18.43
2019-05-17T13:26:00.928Z,11.50
2019-05-17T13:31:04.655Z,11.07
2019-05-17T13:36:08.363Z,15.03
2019-05-17T13:41:12.426Z,11.53
2019-05-17T13:46:16.456Z,10.00
2019-05-17T13:51:20.220Z,10.67
2019-05-17T13:56:23.817Z,10.40
2019-05-17T14:01:27.773Z,10.83
2019-05-17T14:06:31.412Z,9.13
2019-05-17T14:11:36.973Z,8.47
2019-05-17T14:16:40.497Z,8.37
2019-05-17T14:21:44.097Z,10.53
2019-05-17T14:26:47.687Z,12.03
2019-05-17T14:31:51.700Z,15.87
2019-05-17T14:36:55.353Z,8.23
2019-05-17T14:41:58.981Z,8.53
2019-05-17T14:47:02.584Z,7.80
2019-05-17T14:52:06.211Z,7.70
2019-05-17T14:57:09.856Z,10.93
2019-05-17T15:02:13.461Z,10.20
2019-05-17T15:07:17.115Z,8.77
2019-05-17T15:12:28.405Z,9.97
2019-05-17T15:17:26.034Z,10.10
2019-05-17T15:22:29.761Z,10.37
2019-05-17T15:27:33.365Z,11.40
2019-05-17T15:32:37.091Z,8.97
2019-05-17T15:37:40.680Z,14.07
2019-05-17T15:42:44.917Z,9.73
2019-05-17T15:47:48.689Z,10.50
2019-05-17T15:52:52.567Z,11.77
2019-05-17T15:57:56.229Z,9.27
2019-05-17T16:02:59.818Z,8.53
2019-05-17T16:08:03.437Z,11.73
2019-05-17T16:13:07.113Z,10.53
2019-05-17T16:18:10.702Z,9.70
2019-05-17T16:23:14.713Z,12.13
2019-05-17T16:28:18.700Z,10.67
2019-05-17T16:33:22.304Z,10.53
2019-05-17T16:38:26.253Z,10.90
2019-05-17T16:43:30.370Z,9.40
2019-05-17T16:48:34.022Z,8.90
2019-05-17T16:53:38.129Z,10.63
2019-05-17T16:58:42.155Z,8.37
2019-05-17T17:03:45.766Z,16.53
2019-05-17T17:08:49.359Z,13.17
2019-05-17T17:13:52.938Z,13.53
2019-05-17T17:18:56.607Z,11.27
2019-05-17T17:24:00.638Z,11.10
2019-05-17T17:29:04.698Z,12.17
2019-05-17T17:34:08.403Z,10.93
2019-05-17T17:39:12.368Z,9.73
2019-05-17T17:44:15.961Z,13.77
2019-05-17T17:49:19.550Z,9.90
2019-05-17T17:54:23.157Z,10.00
2019-05-17T17:59:26.834Z,11.20
2019-05-17T18:04:30.699Z,15.90
2019-05-17T18:09:34.398Z,11.40
2019-05-17T18:14:38.081Z,13.07
2019-05-17T18:19:41.801Z,13.53
2019-05-17T18:24:45.433Z,10.83
2019-05-17T18:29:49.162Z,12.43
2019-05-17T18:34:52.760Z,13.57
2019-05-17T18:39:56.762Z,11.53
2019-05-17T18:45:00.689Z,11.50
2019-05-17T18:50:05.317Z,15.40
2019-05-17T18:55:09.445Z,11.00
2019-05-17T19:00:13.283Z,7.73
2019-05-17T19:05:17.524Z,9.27
2019-05-17T19:10:22.672Z,10.43
2019-05-17T19:15:26.353Z,11.37
2019-05-17T19:20:30.109Z,10.00
2019-05-17T19:25:34.181Z,9.33
2019-05-17T19:30:38.105Z,7.57
2019-05-17T19:35:41.696Z,7.20
2019-05-17T19:40:45.426Z,10.70
2019-05-17T19:45:48.945Z,7.57
2019-05-17T19:50:52.809Z,11.20
2019-05-17T19:55:56.730Z,8.33
2019-05-17T20:01:00.385Z,10.37
2019-05-17T20:06:04.094Z,9.40
2019-05-17T20:11:08.212Z,7.97
2019-05-17T20:16:13.054Z,9.77
2019-05-17T20:21:16.642Z,8.03
2019-05-17T20:26:20.310Z,8.77
2019-05-17T20:31:23.969Z,11.10
2019-05-17T20:36:27.583Z,11.50
2019-05-17T20:41:31.198Z,10.30
2019-05-17T20:46:34.778Z,10.57
2019-05-17T20:51:38.419Z,10.17
2019-05-17T20:56:42.080Z,9.50
2019-05-17T21:01:45.677Z,10.57
2019-05-17T21:06:49.271Z,9.77
2019-05-17T21:11:53.200Z,10.07
2019-05-17T21:16:57.141Z,9.73
2019-05-17T21:22:01.557Z,30.10
2019-05-17T21:27:05.234Z,26.17
2019-05-17T21:32:08.828Z,33.27
2019-05-17T21:37:12.504Z,18.90
2019-05-17T21:42:16.109Z,23.13
2019-05-17T21:47:19.701Z,13.77
2019-05-17T21:52:23.923Z,9.83
2019-05-17T21:57:27.584Z,9.60
2019-05-17T22:02:31.418Z,8.53
2019-05-17T22:07:35.145Z,11.37
2019-05-17T22:12:38.743Z,12.97
2019-05-17T22:17:45.441Z,12.60
2019-05-17T22:22:49.037Z,8.77
2019-05-17T22:27:52.633Z,11.73
2019-05-17T22:32:56.220Z,9.10
2019-05-17T22:37:59.812Z,8.90
2019-05-17T22:43:03.414Z,8.30
2019-05-17T22:48:07.079Z,10.50
2019-05-17T22:53:10.723Z,9.40
2019-05-17T22:58:14.309Z,8.37
2019-05-17T23:03:18.318Z,7.93
2019-05-17T23:08:22.255Z,11.57
2019-05-17T23:13:26.294Z,9.07
2019-05-17T23:18:34.338Z,7.60
2019-05-17T23:23:38.356Z,10.00
2019-05-17T23:28:42.363Z,10.07
2019-05-17T23:33:45.945Z,9.40
2019-05-17T23:38:49.680Z,8.57
2019-05-17T23:43:53.755Z,12.53
2019-05-17T23:48:57.883Z,9.57
2019-05-17T23:54:01.488Z,12.77
2019-05-17T23:59:05.653Z,12.50
